createdAt,value
2023-04-06T00:01:06.550Z,87117.41
2023-04-06T00:03:33.877Z,87114.88
2023-04-06T00:06:01.054Z,87117.06
2023-04-06T00:08:28.786Z,87122.47
2023-04-06T00:10:56.193Z,87119.84
2023-04-06T00:13:23.428Z,87121.81
2023-04-06T00:15:50.630Z,87112.03
2023-04-06T00:18:18.035Z,87118.19
2023-04-06T00:20:45.212Z,87112.88
2023-04-06T00:23:12.422Z,87105.75
2023-04-06T00:25:39.562Z,87106.66
2023-04-06T00:28:06.838Z,87110.25
2023-04-06T00:30:34.413Z,87109.84
2023-04-06T00:33:01.631Z,87105.63
2023-04-06T00:35:28.871Z,87108.06
2023-04-06T00:37:56.249Z,87108.06
2023-04-06T00:40:23.484Z,87109.16
2023-04-06T00:42:51.086Z,87111.66
2023-04-06T00:45:18.389Z,87109.28
2023-04-06T00:47:45.664Z,87109.22
2023-04-06T00:50:12.932Z,87109.78
2023-04-06T00:52:40.159Z,87103.72
2023-04-06T00:55:07.796Z,87106.22
2023-04-06T00:57:35.166Z,87106.47
2023-04-06T01:00:02.408Z,87104.09
2023-04-06T01:02:29.796Z,87106.28
2023-04-06T01:04:57.496Z,87111.81
2023-04-06T01:07:24.782Z,87101.97
2023-04-06T01:09:57.422Z,87109.03
2023-04-06T01:12:25.931Z,87105.56
2023-04-06T01:14:53.226Z,87111.44
2023-04-06T01:17:20.497Z,87102.56
2023-04-06T01:19:47.774Z,87111.78
2023-04-06T01:22:18.672Z,87112.09
2023-04-06T01:24:46.486Z,87112.56
2023-04-06T01:27:14.653Z,87112.03
2023-04-06T01:29:41.799Z,87104.34
2023-04-06T01:32:09.505Z,87104.59
2023-04-06T01:34:36.710Z,87101.81
2023-04-06T01:37:03.922Z,87100.94
2023-04-06T01:39:31.328Z,87103.44
2023-04-06T01:41:58.496Z,87104.00
2023-04-06T01:44:25.759Z,87101.69
2023-04-06T01:46:53.007Z,87110.25
2023-04-06T01:49:20.283Z,87101.41
2023-04-06T01:51:47.415Z,87099.22
2023-04-06T01:54:14.662Z,87096.63
2023-04-06T01:56:41.961Z,87100.75
2023-04-06T01:59:09.456Z,87100.97
2023-04-06T02:01:37.048Z,87099.44
2023-04-06T02:04:04.312Z,87100.53
2023-04-06T02:06:31.439Z,87101.19
2023-04-06T02:08:58.637Z,87104.69
2023-04-06T02:11:25.859Z,87099.91
2023-04-06T02:13:53.009Z,87101.31
2023-04-06T02:16:20.179Z,87096.53
2023-04-06T02:18:47.405Z,87098.94
2023-04-06T02:21:14.596Z,87095.91
2023-04-06T02:23:41.748Z,87091.00
2023-04-06T02:26:08.931Z,87093.72
2023-04-06T02:28:36.046Z,87092.63
2023-04-06T02:31:03.483Z,87096.63
2023-04-06T02:33:31.082Z,87090.50
2023-04-06T02:35:58.338Z,87096.00
2023-04-06T02:38:25.552Z,87095.91
2023-04-06T02:40:52.736Z,87092.03
2023-04-06T02:43:20.797Z,87090.94
2023-04-06T02:45:47.995Z,87097.53
2023-04-06T02:48:15.517Z,87091.91
2023-04-06T02:50:42.689Z,87092.88
2023-04-06T02:53:09.865Z,87097.44
2023-04-06T02:55:37.085Z,87088.88
2023-04-06T02:58:04.302Z,87097.88
2023-04-06T03:00:31.408Z,87094.06
2023-04-06T03:02:58.754Z,87092.13
2023-04-06T03:05:25.947Z,87094.63
2023-04-06T03:07:53.192Z,87094.91
2023-04-06T03:10:20.590Z,87093.09
2023-04-06T03:12:47.947Z,87092.22
2023-04-06T03:15:15.404Z,87092.56
2023-04-06T03:17:42.537Z,87096.63
2023-04-06T03:20:10.280Z,87097.28
2023-04-06T03:22:37.755Z,87096.84
2023-04-06T03:25:05.481Z,87098.56
2023-04-06T03:27:32.708Z,87104.84
2023-04-06T03:29:59.817Z,87103.31
2023-04-06T03:32:27.003Z,87108.19
2023-04-06T03:34:54.239Z,87114.22
2023-04-06T03:37:21.389Z,87107.16
2023-04-06T03:39:48.501Z,87109.47
2023-04-06T03:42:15.729Z,87114.69
2023-04-06T03:44:42.974Z,87114.28
2023-04-06T03:47:10.164Z,87123.16
2023-04-06T03:49:38.580Z,87124.22
2023-04-06T03:52:07.137Z,87130.50
2023-04-06T03:54:34.272Z,87126.03
2023-04-06T03:57:01.480Z,87129.06
2023-04-06T03:59:28.677Z,87130.50
2023-04-06T04:01:56.307Z,87129.03
2023-04-06T04:04:23.521Z,87134.66
2023-04-06T04:06:50.746Z,87129.91
2023-04-06T04:09:17.950Z,87127.66
2023-04-06T04:11:46.611Z,87130.25
2023-04-06T04:14:14.000Z,87129.66
2023-04-06T04:16:41.414Z,87134.31
2023-04-06T04:19:09.507Z,87130.53
2023-04-06T04:21:47.632Z,87135.56
2023-04-06T04:24:15.195Z,87135.31
2023-04-06T04:26:42.686Z,87133.47
2023-04-06T04:29:10.464Z,87128.31
2023-04-06T04:31:38.039Z,87139.00
2023-04-06T04:34:05.445Z,87138.41
2023-04-06T04:36:32.637Z,87137.22
2023-04-06T04:39:00.182Z,87143.34
2023-04-06T04:41:27.592Z,87140.03
2023-04-06T04:43:54.794Z,87143.66
2023-04-06T04:46:22.079Z,87144.50
2023-04-06T04:48:49.387Z,87137.47
2023-04-06T04:51:16.940Z,87144.38
2023-04-06T04:53:44.198Z,87146.84
2023-04-06T04:56:11.415Z,87146.19
2023-04-06T04:58:38.682Z,87149.97
2023-04-06T05:01:06.966Z,87150.75
2023-04-06T05:03:34.461Z,87144.81
2023-04-06T05:06:02.508Z,87144.50
2023-04-06T05:08:29.674Z,87142.66
2023-04-06T05:10:57.048Z,87140.38
2023-04-06T05:13:24.356Z,87139.19
2023-04-06T05:15:51.597Z,87149.88
2023-04-06T05:18:18.848Z,87143.91
2023-04-06T05:20:46.316Z,87146.84
2023-04-06T05:23:13.510Z,87156.00
2023-04-06T05:25:44.088Z,87151.88
2023-04-06T05:28:11.483Z,87159.16
2023-04-06T05:30:38.784Z,87152.03
2023-04-06T05:33:06.410Z,87156.44
2023-04-06T05:35:33.757Z,87159.34
2023-04-06T05:38:01.036Z,87165.16
2023-04-06T05:40:28.266Z,87162.25
2023-04-06T05:42:55.525Z,87164.97
2023-04-06T05:45:22.676Z,87163.88
2023-04-06T05:47:50.052Z,87162.06
2023-04-06T05:50:17.325Z,87168.44
2023-04-06T05:52:45.436Z,87158.97
2023-04-06T05:55:12.830Z,87157.47
2023-04-06T05:57:40.151Z,87155.31
2023-04-06T06:00:16.076Z,87155.44
2023-04-06T06:02:47.383Z,87159.53
2023-04-06T06:05:17.816Z,87154.16
2023-04-06T06:07:45.147Z,87152.47
2023-04-06T06:10:12.893Z,87155.63
2023-04-06T06:12:42.370Z,87145.50
2023-04-06T06:15:10.442Z,87157.06
2023-04-06T06:17:39.001Z,87150.09
2023-04-06T06:20:10.310Z,87150.66
2023-04-06T06:22:38.064Z,87148.84
2023-04-06T06:25:05.566Z,87149.53
2023-04-06T06:27:32.954Z,87148.28
2023-04-06T06:30:00.187Z,87148.31
2023-04-06T06:32:27.574Z,87147.47
2023-04-06T06:34:55.207Z,87143.38
2023-04-06T06:37:22.373Z,87147.06
2023-04-06T06:39:49.564Z,87140.81
2023-04-06T06:42:16.787Z,87139.75
2023-04-06T06:44:44.046Z,87137.03
2023-04-06T06:47:11.410Z,87142.56
2023-04-06T06:49:38.617Z,87138.44
2023-04-06T06:52:05.886Z,87143.53
2023-04-06T06:54:33.078Z,87138.22
2023-04-06T06:57:00.442Z,87135.81
2023-04-06T06:59:27.736Z,87137.53
2023-04-06T07:01:54.937Z,87134.72
2023-04-06T07:04:22.233Z,87143.38
2023-04-06T07:06:49.502Z,87139.22
2023-04-06T07:09:16.841Z,87139.84
2023-04-06T07:11:44.067Z,87134.53
2023-04-06T07:14:11.524Z,87141.50
2023-04-06T07:16:38.852Z,87141.78
2023-04-06T07:19:12.732Z,87136.44
2023-04-06T07:21:40.638Z,87133.22
2023-04-06T07:24:08.348Z,87135.75
2023-04-06T07:26:35.794Z,87131.47
2023-04-06T07:29:03.106Z,87129.00
2023-04-06T07:31:31.012Z,87126.81
2023-04-06T07:33:58.245Z,87135.97
2023-04-06T07:36:25.461Z,87133.13
2023-04-06T07:38:53.023Z,87130.34
2023-04-06T07:41:20.229Z,87134.22
2023-04-06T07:43:47.377Z,87128.78
2023-04-06T07:46:14.605Z,87136.31
2023-04-06T07:48:41.997Z,87131.53
2023-04-06T07:51:09.486Z,87131.69
2023-04-06T07:53:36.644Z,87128.84
2023-04-06T07:56:04.072Z,87130.56
2023-04-06T07:58:31.310Z,87121.78
2023-04-06T08:00:58.447Z,87113.78
2023-04-06T08:03:25.839Z,87110.72
2023-04-06T08:05:54.061Z,87105.00
2023-04-06T08:08:21.314Z,87112.91
2023-04-06T08:10:51.688Z,87110.78
2023-04-06T08:13:18.984Z,87108.66
2023-04-06T08:15:46.363Z,87109.16
2023-04-06T08:18:14.189Z,87104.91
2023-04-06T08:20:41.812Z,87112.47
2023-04-06T08:23:08.957Z,87107.00
2023-04-06T08:25:37.911Z,87110.50
2023-04-06T08:28:05.765Z,87092.75
2023-04-06T08:30:33.313Z,87103.34
2023-04-06T08:33:00.484Z,87095.88
2023-04-06T08:35:28.738Z,87100.41
2023-04-06T08:37:56.012Z,87101.84
2023-04-06T08:40:23.558Z,87100.41
2023-04-06T08:42:57.403Z,87105.91
2023-04-06T08:45:25.134Z,87106.50
2023-04-06T08:47:53.692Z,87105.97
2023-04-06T08:50:22.139Z,87100.41
2023-04-06T08:52:50.394Z,87101.97
2023-04-06T08:55:17.861Z,87103.75
2023-04-06T08:57:47.597Z,87102.38
2023-04-06T09:00:17.576Z,87096.47
2023-04-06T09:02:47.167Z,87087.66
2023-04-06T09:05:14.773Z,87087.09
2023-04-06T09:07:42.426Z,87089.38
2023-04-06T09:10:10.283Z,87089.03
2023-04-06T09:12:37.511Z,87089.44
2023-04-06T09:15:05.619Z,87084.41
2023-04-06T09:17:34.386Z,87090.41
2023-04-06T09:20:03.649Z,87086.19
2023-04-06T09:22:39.256Z,87090.66
2023-04-06T09:25:09.471Z,87074.63
2023-04-06T09:27:38.839Z,87076.09
2023-04-06T09:30:07.785Z,87078.06
2023-04-06T09:32:56.292Z,87078.75
2023-04-06T09:35:24.626Z,87070.72
2023-04-06T09:37:54.121Z,87069.28
2023-04-06T09:40:21.578Z,87081.72
2023-04-06T09:42:50.952Z,87072.06
2023-04-06T09:45:18.272Z,87070.66
2023-04-06T09:47:47.257Z,87060.81
2023-04-06T09:50:16.224Z,87069.16
2023-04-06T09:52:55.156Z,87065.94
2023-04-06T09:55:41.631Z,87058.28
2023-04-06T09:58:14.469Z,87066.53
2023-04-06T10:01:16.381Z,87053.56
2023-04-06T10:04:26.198Z,87051.78
2023-04-06T10:06:53.457Z,87054.06
2023-04-06T10:09:29.262Z,87045.94
2023-04-06T10:12:00.167Z,87047.47
2023-04-06T10:14:27.786Z,87052.50
2023-04-06T10:16:55.571Z,87041.00
2023-04-06T10:19:32.422Z,87043.03
2023-04-06T10:22:03.274Z,87043.00
2023-04-06T10:24:30.485Z,87035.00
2023-04-06T10:27:05.361Z,87026.53
2023-04-06T10:29:47.745Z,87023.00
2023-04-06T10:32:15.041Z,87021.06
2023-04-06T10:34:42.617Z,87008.28
2023-04-06T10:37:18.112Z,87009.34
2023-04-06T10:39:54.614Z,87015.94
2023-04-06T10:42:39.387Z,87005.50
2023-04-06T10:45:08.885Z,87001.34
2023-04-06T10:47:42.435Z,87003.00
2023-04-06T10:50:13.371Z,87003.31
2023-04-06T10:52:40.644Z,86996.91
2023-04-06T10:55:10.463Z,86996.22
2023-04-06T10:57:37.901Z,86985.78
2023-04-06T11:00:12.541Z,86986.00
2023-04-06T11:02:39.888Z,86986.16
2023-04-06T11:05:08.119Z,86975.84
2023-04-06T11:07:35.349Z,86981.19
2023-04-06T11:10:13.450Z,86979.44
2023-04-06T11:12:43.056Z,86972.19
2023-04-06T11:15:11.113Z,86972.66
2023-04-06T11:17:42.081Z,86962.59
2023-04-06T11:20:12.787Z,86961.84
2023-04-06T11:22:53.272Z,86963.75
2023-04-06T11:25:20.983Z,86959.81
2023-04-06T11:27:48.919Z,86957.03
2023-04-06T11:30:16.515Z,86964.91
2023-04-06T11:32:46.532Z,86962.56
2023-04-06T11:35:24.691Z,86960.69
2023-04-06T11:37:52.694Z,86957.84
2023-04-06T11:40:24.305Z,86952.44
2023-04-06T11:42:56.527Z,86950.16
2023-04-06T11:45:24.486Z,86952.28
2023-04-06T11:48:00.731Z,86949.13
2023-04-06T11:50:34.443Z,86942.34
2023-04-06T11:53:03.362Z,86950.97
2023-04-06T11:55:37.850Z,86946.31
2023-04-06T11:58:05.037Z,86950.34
2023-04-06T12:00:32.735Z,86941.78
2023-04-06T12:03:00.025Z,86945.31
2023-04-06T12:05:27.474Z,86946.47
2023-04-06T12:07:54.705Z,86934.41
2023-04-06T12:10:22.076Z,86945.72
2023-04-06T12:12:49.296Z,86937.19
2023-04-06T12:15:16.664Z,86943.66
2023-04-06T12:17:44.022Z,86933.59
2023-04-06T12:20:25.124Z,86937.09
2023-04-06T12:22:54.032Z,86935.94
2023-04-06T12:25:21.431Z,86935.78
2023-04-06T12:27:48.900Z,86942.38
2023-04-06T12:30:16.588Z,86946.28
2023-04-06T12:32:43.793Z,86933.84
2023-04-06T12:35:11.250Z,86928.31
2023-04-06T12:37:38.544Z,86932.19
2023-04-06T12:40:06.646Z,86939.19
2023-04-06T12:42:33.914Z,86926.06
2023-04-06T12:45:01.142Z,86926.53
2023-04-06T12:47:28.478Z,86925.59
2023-04-06T12:49:55.734Z,86928.25
2023-04-06T12:52:22.982Z,86926.34
2023-04-06T12:54:51.439Z,86929.69
2023-04-06T12:57:18.781Z,86923.88
2023-04-06T12:59:46.127Z,86926.41
2023-04-06T13:02:13.525Z,86926.56
2023-04-06T13:04:40.732Z,86934.38
2023-04-06T13:07:07.908Z,86928.53
2023-04-06T13:09:35.346Z,86921.50
2023-04-06T13:12:02.641Z,86923.34
2023-04-06T13:14:30.061Z,86925.66
2023-04-06T13:16:57.343Z,86914.13
2023-04-06T13:19:24.603Z,86917.88
2023-04-06T13:21:51.892Z,86910.81
2023-04-06T13:24:19.139Z,86913.97
2023-04-06T13:26:46.526Z,86913.81
2023-04-06T13:29:13.748Z,86899.09
2023-04-06T13:31:40.943Z,86904.63
2023-04-06T13:34:08.301Z,86903.91
2023-04-06T13:36:35.620Z,86894.19
2023-04-06T13:39:02.847Z,86902.22
2023-04-06T13:41:30.032Z,86895.25
2023-04-06T13:43:57.240Z,86889.13
2023-04-06T13:46:25.170Z,86899.31
2023-04-06T13:48:52.545Z,86897.75
2023-04-06T13:51:19.814Z,86891.19
2023-04-06T13:53:47.124Z,86893.84
2023-04-06T13:56:14.294Z,86888.56
2023-04-06T13:58:41.692Z,86890.72
2023-04-06T14:01:10.480Z,86889.22
2023-04-06T14:03:38.538Z,86884.88
2023-04-06T14:06:26.880Z,86895.91
2023-04-06T14:08:58.246Z,86887.53
2023-04-06T14:11:25.783Z,86889.34
2023-04-06T14:13:53.548Z,86891.66
2023-04-06T14:16:24.484Z,86890.38
2023-04-06T14:18:51.719Z,86894.25
2023-04-06T14:21:18.947Z,86890.09
2023-04-06T14:23:46.407Z,86889.78
2023-04-06T14:26:13.800Z,86893.88
2023-04-06T14:28:40.984Z,86896.97
2023-04-06T14:31:14.375Z,86888.38
2023-04-06T14:33:43.646Z,86896.09
2023-04-06T14:36:11.203Z,86892.22
2023-04-06T14:38:38.546Z,86888.38
2023-04-06T14:41:05.803Z,86892.50
2023-04-06T14:43:33.077Z,86887.38
2023-04-06T14:46:03.535Z,86891.69
2023-04-06T14:48:30.839Z,86892.94
2023-04-06T14:50:58.506Z,86889.72
2023-04-06T14:53:26.515Z,86893.38
2023-04-06T14:55:54.243Z,86899.03
2023-04-06T14:58:22.969Z,86901.41
2023-04-06T15:00:55.984Z,86907.31
2023-04-06T15:03:23.402Z,86900.75
2023-04-06T15:05:50.704Z,86899.19
2023-04-06T15:08:17.947Z,86899.13
2023-04-06T15:10:45.097Z,86904.03
2023-04-06T15:13:12.281Z,86890.22
2023-04-06T15:15:42.463Z,86901.00
2023-04-06T15:18:12.670Z,86897.00
2023-04-06T15:20:39.851Z,86901.06
2023-04-06T15:23:07.365Z,86914.28
2023-04-06T15:25:38.327Z,86910.63
2023-04-06T15:28:05.637Z,86916.44
2023-04-06T15:30:32.922Z,86918.34
2023-04-06T15:33:02.594Z,86923.22
2023-04-06T15:35:33.614Z,86924.66
2023-04-06T15:38:01.634Z,86925.97
2023-04-06T15:40:29.493Z,86921.00
2023-04-06T15:42:59.919Z,86923.56
2023-04-06T15:45:27.186Z,86929.00
2023-04-06T15:47:54.460Z,86932.91
2023-04-06T15:50:21.882Z,86929.25
2023-04-06T15:52:49.302Z,86930.34
2023-04-06T15:55:16.535Z,86933.38
2023-04-06T15:57:43.726Z,86949.31
2023-04-06T16:00:12.138Z,86938.03
2023-04-06T16:02:39.774Z,86938.25
2023-04-06T16:05:07.520Z,86941.88
2023-04-06T16:07:35.750Z,86939.81
2023-04-06T16:10:03.307Z,86941.41
2023-04-06T16:12:30.559Z,86945.22
2023-04-06T16:14:57.802Z,86944.25
2023-04-06T16:17:25.183Z,86948.69
2023-04-06T16:19:52.418Z,86957.94
2023-04-06T16:22:19.686Z,86953.28
2023-04-06T16:24:46.902Z,86957.19
2023-04-06T16:27:14.841Z,86954.25
2023-04-06T16:29:42.010Z,86948.66
2023-04-06T16:32:09.312Z,86965.91
2023-04-06T16:34:36.600Z,86965.25
2023-04-06T16:37:03.998Z,86963.38
2023-04-06T16:39:31.161Z,86963.47
2023-04-06T16:41:58.326Z,86971.53
2023-04-06T16:44:25.782Z,86978.88
2023-04-06T16:46:53.045Z,86980.66
2023-04-06T16:49:20.262Z,86974.28
2023-04-06T16:51:47.460Z,86979.59
2023-04-06T16:54:14.658Z,86981.88
2023-04-06T16:56:41.851Z,86987.56
2023-04-06T16:59:09.593Z,86988.78
2023-04-06T17:01:37.052Z,86988.41
2023-04-06T17:04:04.480Z,86988.09
2023-04-06T17:06:31.849Z,86990.78
2023-04-06T17:08:59.449Z,86994.19
2023-04-06T17:11:35.886Z,86985.94
2023-04-06T17:14:10.886Z,86988.22
2023-04-06T17:16:38.617Z,86988.97
2023-04-06T17:19:07.680Z,86991.22
2023-04-06T17:21:34.955Z,86998.00
2023-04-06T17:24:02.164Z,86997.66
2023-04-06T17:26:29.413Z,86987.88
2023-04-06T17:28:56.664Z,87003.28
2023-04-06T17:31:24.004Z,87001.00
2023-04-06T17:33:51.368Z,87003.28
2023-04-06T17:36:20.548Z,87008.13
2023-04-06T17:38:48.620Z,87011.91
2023-04-06T17:41:16.086Z,87013.03
2023-04-06T17:43:43.325Z,87018.66
2023-04-06T17:46:10.814Z,87025.81
2023-04-06T17:48:38.426Z,87025.00
2023-04-06T17:51:05.632Z,87032.50
2023-04-06T17:53:32.995Z,87032.44
2023-04-06T17:56:04.776Z,87033.88
2023-04-06T17:58:31.923Z,87040.59
2023-04-06T18:00:59.065Z,87043.56
2023-04-06T18:03:26.224Z,87046.50
2023-04-06T18:05:53.432Z,87048.69
2023-04-06T18:08:20.584Z,87048.31
2023-04-06T18:10:47.815Z,87044.09
2023-04-06T18:13:14.942Z,87050.06
2023-04-06T18:15:42.296Z,87052.25
2023-04-06T18:18:09.448Z,87055.22
2023-04-06T18:20:40.858Z,87058.53
2023-04-06T18:23:08.125Z,87062.59
2023-04-06T18:25:39.915Z,87072.25
2023-04-06T18:28:08.973Z,87075.19
2023-04-06T18:30:36.508Z,87068.72
2023-04-06T18:33:05.006Z,87077.66
2023-04-06T18:35:32.436Z,87083.56
2023-04-06T18:37:59.601Z,87086.94
2023-04-06T18:40:35.667Z,87094.28
2023-04-06T18:43:05.657Z,87093.47
2023-04-06T18:45:36.763Z,87103.13
2023-04-06T18:48:04.574Z,87111.66
2023-04-06T18:50:31.818Z,87104.81
2023-04-06T18:52:59.117Z,87104.03
2023-04-06T18:55:26.402Z,87113.31
2023-04-06T18:57:54.057Z,87115.88
2023-04-06T19:00:21.349Z,87119.50
2023-04-06T19:02:48.889Z,87121.28
2023-04-06T19:05:16.409Z,87129.81
2023-04-06T19:07:43.790Z,87131.59
2023-04-06T19:10:11.363Z,87138.66
2023-04-06T19:12:40.093Z,87140.88
2023-04-06T19:15:08.667Z,87141.19
2023-04-06T19:17:36.267Z,87142.56
2023-04-06T19:20:03.830Z,87142.06
2023-04-06T19:22:31.357Z,87148.28
2023-04-06T19:24:58.507Z,87149.25
2023-04-06T19:27:25.920Z,87149.53
2023-04-06T19:29:53.058Z,87151.63
2023-04-06T19:32:20.374Z,87154.91
2023-04-06T19:34:47.639Z,87163.06
2023-04-06T19:37:15.299Z,87160.25
2023-04-06T19:39:42.818Z,87159.38
2023-04-06T19:42:11.063Z,87165.19
2023-04-06T19:44:38.356Z,87162.44
2023-04-06T19:47:05.529Z,87162.28
2023-04-06T19:49:32.689Z,87171.13
2023-04-06T19:51:59.953Z,87173.25
2023-04-06T19:54:27.387Z,87180.28
2023-04-06T19:56:54.693Z,87182.47
2023-04-06T19:59:22.141Z,87179.47
2023-04-06T20:01:49.916Z,87182.69
2023-04-06T20:04:17.431Z,87186.59
2023-04-06T20:06:44.609Z,87183.09
2023-04-06T20:09:12.129Z,87184.88
2023-04-06T20:11:39.532Z,87190.72
2023-04-06T20:14:07.328Z,87188.38
2023-04-06T20:16:35.009Z,87187.88
2023-04-06T20:19:02.430Z,87193.03
2023-04-06T20:21:29.724Z,87193.72
2023-04-06T20:23:57.263Z,87190.28
2023-04-06T20:26:24.605Z,87201.41
2023-04-06T20:28:51.807Z,87198.78
2023-04-06T20:31:19.082Z,87187.94
2023-04-06T20:33:46.280Z,87197.28
2023-04-06T20:36:13.438Z,87195.75
2023-04-06T20:38:40.634Z,87197.13
2023-04-06T20:41:08.698Z,87203.72
2023-04-06T20:43:36.541Z,87202.56
2023-04-06T20:46:04.008Z,87198.34
2023-04-06T20:48:33.461Z,87203.47
2023-04-06T20:51:03.957Z,87198.19
2023-04-06T20:53:31.462Z,87203.00
2023-04-06T20:56:00.864Z,87205.19
2023-04-06T20:58:28.465Z,87208.81
2023-04-06T21:00:55.745Z,87212.09
2023-04-06T21:03:23.120Z,87209.69
2023-04-06T21:05:55.871Z,87211.09
2023-04-06T21:08:23.727Z,87209.50
2023-04-06T21:10:51.031Z,87211.28
2023-04-06T21:13:21.309Z,87209.81
2023-04-06T21:15:48.591Z,87207.22
2023-04-06T21:18:15.793Z,87206.06
2023-04-06T21:20:44.323Z,87204.47
2023-04-06T21:23:11.677Z,87208.09
2023-04-06T21:25:39.029Z,87203.13
2023-04-06T21:28:06.198Z,87209.00
2023-04-06T21:30:33.583Z,87204.03
2023-04-06T21:33:00.763Z,87207.34
2023-04-06T21:35:27.964Z,87199.34
2023-04-06T21:37:55.148Z,87208.25
2023-04-06T21:40:22.471Z,87205.13
2023-04-06T21:42:49.664Z,87206.81
2023-04-06T21:45:16.972Z,87201.50
2023-04-06T21:47:44.077Z,87202.19
2023-04-06T21:50:11.487Z,87215.22
2023-04-06T21:52:38.933Z,87199.03
2023-04-06T21:55:06.799Z,87201.56
2023-04-06T21:57:33.891Z,87206.25
2023-04-06T22:00:01.146Z,87209.97
2023-04-06T22:02:28.459Z,87205.06
2023-04-06T22:04:55.827Z,87204.34
2023-04-06T22:07:22.986Z,87200.56
2023-04-06T22:09:51.995Z,87202.81
2023-04-06T22:12:20.567Z,87203.59
2023-04-06T22:14:47.773Z,87198.59
2023-04-06T22:17:15.254Z,87200.69
2023-04-06T22:19:42.527Z,87201.69
2023-04-06T22:22:09.968Z,87201.84
2023-04-06T22:24:37.356Z,87197.31
2023-04-06T22:27:04.491Z,87199.91
2023-04-06T22:29:31.762Z,87193.94
2023-04-06T22:31:58.928Z,87201.34
2023-04-06T22:34:26.035Z,87190.81
2023-04-06T22:36:53.215Z,87195.16
2023-04-06T22:39:20.375Z,87188.44
2023-04-06T22:41:47.538Z,87192.47
2023-04-06T22:44:15.142Z,87190.63
2023-04-06T22:46:42.639Z,87185.22
2023-04-06T22:49:09.835Z,87189.56
2023-04-06T22:51:37.333Z,87194.34
2023-04-06T22:54:04.528Z,87202.81
2023-04-06T22:56:31.687Z,87190.13
2023-04-06T22:58:58.848Z,87193.72
2023-04-06T23:01:26.072Z,87196.34
2023-04-06T23:03:53.353Z,87188.09
2023-04-06T23:06:20.545Z,87183.31
2023-04-06T23:08:47.816Z,87183.84
2023-04-06T23:11:14.995Z,87183.09
2023-04-06T23:13:42.122Z,87180.06
2023-04-06T23:16:09.701Z,87188.88
2023-04-06T23:18:37.076Z,87184.66
2023-04-06T23:21:08.875Z,87171.31
2023-04-06T23:23:36.562Z,87177.91
2023-04-06T23:26:04.146Z,87182.69
2023-04-06T23:28:31.516Z,87173.50
2023-04-06T23:30:59.102Z,87172.56
2023-04-06T23:33:26.930Z,87177.88
2023-04-06T23:35:54.690Z,87172.59
2023-04-06T23:38:22.261Z,87171.50
2023-04-06T23:40:49.814Z,87177.03
2023-04-06T23:43:17.326Z,87179.13
2023-04-06T23:45:44.893Z,87173.72
2023-04-06T23:48:12.389Z,87178.69
2023-04-06T23:50:39.923Z,87176.66
2023-04-06T23:53:07.516Z,87175.47
2023-04-06T23:55:34.912Z,87181.94
2023-04-06T23:58:02.289Z,87177.84
